sensor_id;sensor_type;location;lat;lon;timestamp;P1;durP1;ratioP1;P2;durP2;ratioP2
66521;SDS011;53349;53.538;8.584;2022-10-16T00:00:28;7.70;;;3.20;;
66521;SDS011;53349;53.538;8.584;2022-10-16T00:02:53;8.37;;;3.40;;
66521;SDS011;53349;53.538;8.584;2022-10-16T00:05:19;8.43;;;3.05;;
66521;SDS011;53349;53.538;8.584;2022-10-16T00:07:44;9.13;;;3.55;;
66521;SDS011;53349;53.538;8.584;2022-10-16T00:10:09;8.90;;;2.90;;
66521;SDS011;53349;53.538;8.584;2022-10-16T00:12:35;8.47;;;3.30;;
66521;SDS011;53349;53.538;8.584;2022-10-16T00:15:00;11.07;;;3.70;;
66521;SDS011;53349;53.538;8.584;2022-10-16T00:17:25;7.20;;;3.20;;
66521;SDS011;53349;53.538;8.584;2022-10-16T00:19:51;12.73;;;3.47;;
66521;SDS011;53349;53.538;8.584;2022-10-16T00:22:16;7.60;;;3.10;;
66521;SDS011;53349;53.538;8.584;2022-10-16T00:24:41;9.93;;;3.10;;
66521;SDS011;53349;53.538;8.584;2022-10-16T00:27:07;8.27;;;2.77;;
66521;SDS011;53349;53.538;8.584;2022-10-16T00:29:32;8.77;;;2.87;;
66521;SDS011;53349;53.538;8.584;2022-10-16T00:31:57;7.20;;;2.90;;
66521;SDS011;53349;53.538;8.584;2022-10-16T00:34:23;7.17;;;3.17;;
66521;SDS011;53349;53.538;8.584;2022-10-16T00:36:48;7.87;;;3.53;;
66521;SDS011;53349;53.538;8.584;2022-10-16T00:39:13;8.40;;;3.17;;
66521;SDS011;53349;53.538;8.584;2022-10-16T00:41:39;8.00;;;3.17;;
66521;SDS011;53349;53.538;8.584;2022-10-16T00:44:41;7.70;;;3.70;;
66521;SDS011;53349;53.538;8.584;2022-10-16T00:47:10;7.97;;;3.15;;
66521;SDS011;53349;53.538;8.584;2022-10-16T00:49:43;8.05;;;3.17;;
66521;SDS011;53349;53.538;8.584;2022-10-16T00:52:09;9.37;;;3.20;;
66521;SDS011;53349;53.538;8.584;2022-10-16T00:54:35;5.57;;;2.75;;
66521;SDS011;53349;53.538;8.584;2022-10-16T00:57:01;6.90;;;2.93;;
66521;SDS011;53349;53.538;8.584;2022-10-16T00:59:33;7.47;;;3.20;;
66521;SDS011;53349;53.538;8.584;2022-10-16T01:02:01;9.20;;;3.05;;
66521;SDS011;53349;53.538;8.584;2022-10-16T01:04:31;7.72;;;2.88;;
66521;SDS011;53349;53.538;8.584;2022-10-16T01:17:55;7.18;;;2.35;;
66521;SDS011;53349;53.538;8.584;2022-10-16T01:20:31;6.67;;;2.40;;
66521;SDS011;53349;53.538;8.584;2022-10-16T01:26:16;5.53;;;2.38;;
66521;SDS011;53349;53.538;8.584;2022-10-16T01:28:56;5.03;;;2.22;;
66521;SDS011;53349;53.538;8.584;2022-10-16T01:31:30;6.60;;;2.45;;
66521;SDS011;53349;53.538;8.584;2022-10-16T01:34:22;6.57;;;2.20;;
66521;SDS011;53349;53.538;8.584;2022-10-16T01:37:02;6.65;;;2.50;;
66521;SDS011;53349;53.538;8.584;2022-10-16T01:39:33;7.47;;;2.10;;
66521;SDS011;53349;53.538;8.584;2022-10-16T01:42:11;5.43;;;2.10;;
66521;SDS011;53349;53.538;8.584;2022-10-16T01:44:41;5.93;;;2.25;;
66521;SDS011;53349;53.538;8.584;2022-10-16T01:47:09;6.50;;;2.27;;
66521;SDS011;53349;53.538;8.584;2022-10-16T01:49:38;4.00;;;1.85;;
66521;SDS011;53349;53.538;8.584;2022-10-16T01:52:06;6.10;;;2.38;;
66521;SDS011;53349;53.538;8.584;2022-10-16T01:54:36;5.88;;;2.20;;
66521;SDS011;53349;53.538;8.584;2022-10-16T01:57:05;5.97;;;2.15;;
66521;SDS011;53349;53.538;8.584;2022-10-16T01:59:33;6.20;;;2.23;;
66521;SDS011;53349;53.538;8.584;2022-10-16T02:02:04;6.80;;;2.03;;
66521;SDS011;53349;53.538;8.584;2022-10-16T02:04:33;5.57;;;2.03;;
66521;SDS011;53349;53.538;8.584;2022-10-16T02:07:02;6.03;;;2.03;;
66521;SDS011;53349;53.538;8.584;2022-10-16T02:09:29;5.32;;;2.30;;
66521;SDS011;53349;53.538;8.584;2022-10-16T02:11:57;6.78;;;1.98;;
66521;SDS011;53349;53.538;8.584;2022-10-16T02:14:27;5.72;;;1.98;;
66521;SDS011;53349;53.538;8.584;2022-10-16T02:16:53;5.82;;;2.10;;
66521;SDS011;53349;53.538;8.584;2022-10-16T02:19:19;5.17;;;1.93;;
66521;SDS011;53349;53.538;8.584;2022-10-16T02:21:54;4.88;;;1.90;;
66521;SDS011;53349;53.538;8.584;2022-10-16T02:24:33;5.90;;;1.70;;
66521;SDS011;53349;53.538;8.584;2022-10-16T02:27:08;5.93;;;1.90;;
66521;SDS011;53349;53.538;8.584;2022-10-16T02:29:38;5.32;;;1.90;;
66521;SDS011;53349;53.538;8.584;2022-10-16T02:32:13;5.85;;;1.90;;
66521;SDS011;53349;53.538;8.584;2022-10-16T02:34:42;7.22;;;1.83;;
66521;SDS011;53349;53.538;8.584;2022-10-16T02:37:09;5.43;;;2.10;;
66521;SDS011;53349;53.538;8.584;2022-10-16T02:39:35;7.37;;;1.97;;
66521;SDS011;53349;53.538;8.584;2022-10-16T02:42:02;8.93;;;1.88;;
66521;SDS011;53349;53.538;8.584;2022-10-16T02:44:28;8.10;;;2.20;;
66521;SDS011;53349;53.538;8.584;2022-10-16T02:46:53;6.90;;;2.20;;
66521;SDS011;53349;53.538;8.584;2022-10-16T02:49:18;5.23;;;1.80;;
66521;SDS011;53349;53.538;8.584;2022-10-16T02:51:44;6.88;;;2.10;;
66521;SDS011;53349;53.538;8.584;2022-10-16T02:54:09;3.83;;;2.05;;
66521;SDS011;53349;53.538;8.584;2022-10-16T02:56:35;7.10;;;2.10;;
66521;SDS011;53349;53.538;8.584;2022-10-16T02:59:01;7.85;;;2.13;;
66521;SDS011;53349;53.538;8.584;2022-10-16T03:01:26;6.70;;;2.30;;
66521;SDS011;53349;53.538;8.584;2022-10-16T03:03:51;5.70;;;2.20;;
66521;SDS011;53349;53.538;8.584;2022-10-16T03:06:17;3.67;;;1.90;;
66521;SDS011;53349;53.538;8.584;2022-10-16T03:08:42;5.20;;;2.00;;
66521;SDS011;53349;53.538;8.584;2022-10-16T03:11:07;4.50;;;2.07;;
66521;SDS011;53349;53.538;8.584;2022-10-16T03:13:33;6.25;;;2.30;;
66521;SDS011;53349;53.538;8.584;2022-10-16T03:15:58;7.80;;;1.90;;
66521;SDS011;53349;53.538;8.584;2022-10-16T03:18:24;6.57;;;2.10;;
66521;SDS011;53349;53.538;8.584;2022-10-16T03:20:49;4.13;;;1.80;;
66521;SDS011;53349;53.538;8.584;2022-10-16T03:23:14;5.77;;;1.87;;
66521;SDS011;53349;53.538;8.584;2022-10-16T03:25:40;7.67;;;2.17;;
66521;SDS011;53349;53.538;8.584;2022-10-16T03:28:05;6.77;;;2.10;;
66521;SDS011;53349;53.538;8.584;2022-10-16T03:30:31;6.47;;;2.00;;
66521;SDS011;53349;53.538;8.584;2022-10-16T03:32:56;5.63;;;2.20;;
66521;SDS011;53349;53.538;8.584;2022-10-16T03:35:22;5.00;;;1.90;;
66521;SDS011;53349;53.538;8.584;2022-10-16T03:37:49;6.10;;;1.90;;
66521;SDS011;53349;53.538;8.584;2022-10-16T03:40:15;6.55;;;2.17;;
66521;SDS011;53349;53.538;8.584;2022-10-16T03:42:44;5.78;;;2.40;;
66521;SDS011;53349;53.538;8.584;2022-10-16T03:45:10;7.78;;;2.10;;
66521;SDS011;53349;53.538;8.584;2022-10-16T03:47:36;5.80;;;2.15;;
66521;SDS011;53349;53.538;8.584;2022-10-16T03:50:02;5.80;;;2.20;;
66521;SDS011;53349;53.538;8.584;2022-10-16T03:52:28;7.10;;;1.90;;
66521;SDS011;53349;53.538;8.584;2022-10-16T03:54:54;5.78;;;1.92;;
66521;SDS011;53349;53.538;8.584;2022-10-16T03:57:19;6.70;;;1.90;;
66521;SDS011;53349;53.538;8.584;2022-10-16T03:59:45;7.78;;;3.50;;
66521;SDS011;53349;53.538;8.584;2022-10-16T04:02:11;6.75;;;2.42;;
66521;SDS011;53349;53.538;8.584;2022-10-16T04:04:36;4.40;;;2.07;;
66521;SDS011;53349;53.538;8.584;2022-10-16T04:07:01;7.90;;;2.80;;
66521;SDS011;53349;53.538;8.584;2022-10-16T04:09:27;6.57;;;2.30;;
66521;SDS011;53349;53.538;8.584;2022-10-16T04:11:52;5.38;;;2.08;;
66521;SDS011;53349;53.538;8.584;2022-10-16T04:14:18;8.70;;;2.00;;
66521;SDS011;53349;53.538;8.584;2022-10-16T04:16:43;4.50;;;2.40;;
66521;SDS011;53349;53.538;8.584;2022-10-16T04:19:09;5.40;;;1.93;;
66521;SDS011;53349;53.538;8.584;2022-10-16T04:21:35;3.88;;;1.90;;
66521;SDS011;53349;53.538;8.584;2022-10-16T04:24:00;4.70;;;1.80;;
66521;SDS011;53349;53.538;8.584;2022-10-16T04:26:26;6.57;;;1.80;;
66521;SDS011;53349;53.538;8.584;2022-10-16T04:28:53;4.55;;;1.80;;
66521;SDS011;53349;53.538;8.584;2022-10-16T04:31:18;6.00;;;1.87;;
66521;SDS011;53349;53.538;8.584;2022-10-16T04:33:44;5.50;;;1.80;;
66521;SDS011;53349;53.538;8.584;2022-10-16T04:36:10;5.13;;;1.83;;
66521;SDS011;53349;53.538;8.584;2022-10-16T04:38:35;4.07;;;1.70;;
66521;SDS011;53349;53.538;8.584;2022-10-16T04:41:03;4.75;;;1.75;;
66521;SDS011;53349;53.538;8.584;2022-10-16T04:43:29;6.10;;;1.90;;
66521;SDS011;53349;53.538;8.584;2022-10-16T04:45:54;4.30;;;1.93;;
66521;SDS011;53349;53.538;8.584;2022-10-16T04:48:21;5.20;;;1.70;;
66521;SDS011;53349;53.538;8.584;2022-10-16T04:50:47;6.28;;;1.92;;
66521;SDS011;53349;53.538;8.584;2022-10-16T04:53:12;3.57;;;1.50;;
66521;SDS011;53349;53.538;8.584;2022-10-16T04:55:37;3.87;;;1.70;;
66521;SDS011;53349;53.538;8.584;2022-10-16T04:58:03;4.93;;;1.83;;
66521;SDS011;53349;53.538;8.584;2022-10-16T05:00:29;4.60;;;1.95;;
66521;SDS011;53349;53.538;8.584;2022-10-16T05:02:54;5.43;;;2.13;;
66521;SDS011;53349;53.538;8.584;2022-10-16T05:05:20;5.83;;;2.00;;
66521;SDS011;53349;53.538;8.584;2022-10-16T05:07:46;5.00;;;2.10;;
66521;SDS011;53349;53.538;8.584;2022-10-16T05:10:12;5.00;;;1.98;;
66521;SDS011;53349;53.538;8.584;2022-10-16T05:12:37;4.40;;;1.80;;
66521;SDS011;53349;53.538;8.584;2022-10-16T05:15:02;4.57;;;1.80;;
66521;SDS011;53349;53.538;8.584;2022-10-16T05:17:28;5.50;;;2.10;;
66521;SDS011;53349;53.538;8.584;2022-10-16T05:19:53;6.25;;;2.13;;
66521;SDS011;53349;53.538;8.584;2022-10-16T05:22:19;5.57;;;2.23;;
66521;SDS011;53349;53.538;8.584;2022-10-16T05:24:44;7.20;;;2.47;;
66521;SDS011;53349;53.538;8.584;2022-10-16T05:27:10;6.70;;;2.40;;
66521;SDS011;53349;53.538;8.584;2022-10-16T05:29:36;6.32;;;2.58;;
66521;SDS011;53349;53.538;8.584;2022-10-16T05:32:01;7.17;;;3.00;;
66521;SDS011;53349;53.538;8.584;2022-10-16T05:34:27;6.55;;;2.97;;
66521;SDS011;53349;53.538;8.584;2022-10-16T05:36:52;7.47;;;3.40;;
66521;SDS011;53349;53.538;8.584;2022-10-16T05:39:18;5.53;;;2.70;;
66521;SDS011;53349;53.538;8.584;2022-10-16T05:41:43;7.97;;;3.03;;
66521;SDS011;53349;53.538;8.584;2022-10-16T05:44:09;6.70;;;3.50;;
66521;SDS011;53349;53.538;8.584;2022-10-16T05:46:35;7.20;;;3.30;;
66521;SDS011;53349;53.538;8.584;2022-10-16T05:49:00;7.70;;;3.37;;
66521;SDS011;53349;53.538;8.584;2022-10-16T05:51:26;8.00;;;3.30;;
66521;SDS011;53349;53.538;8.584;2022-10-16T05:53:52;7.20;;;3.50;;
66521;SDS011;53349;53.538;8.584;2022-10-16T05:56:17;7.38;;;4.00;;
66521;SDS011;53349;53.538;8.584;2022-10-16T05:58:43;7.80;;;3.60;;
66521;SDS011;53349;53.538;8.584;2022-10-16T06:01:13;8.43;;;3.72;;
66521;SDS011;53349;53.538;8.584;2022-10-16T06:03:40;7.75;;;3.58;;
66521;SDS011;53349;53.538;8.584;2022-10-16T06:06:13;8.63;;;4.00;;
66521;SDS011;53349;53.538;8.584;2022-10-16T06:08:44;11.63;;;4.15;;
66521;SDS011;53349;53.538;8.584;2022-10-16T06:11:11;8.30;;;3.67;;
66521;SDS011;53349;53.538;8.584;2022-10-16T06:13:38;11.82;;;4.70;;
66521;SDS011;53349;53.538;8.584;2022-10-16T06:16:06;8.40;;;4.68;;
66521;SDS011;53349;53.538;8.584;2022-10-16T06:18:32;9.48;;;4.53;;
66521;SDS011;53349;53.538;8.584;2022-10-16T06:20:57;12.23;;;4.90;;
66521;SDS011;53349;53.538;8.584;2022-10-16T06:23:24;9.40;;;4.85;;
66521;SDS011;53349;53.538;8.584;2022-10-16T06:25:49;10.45;;;5.00;;
66521;SDS011;53349;53.538;8.584;2022-10-16T06:28:16;11.83;;;5.43;;
66521;SDS011;53349;53.538;8.584;2022-10-16T06:30:42;10.13;;;5.13;;
66521;SDS011;53349;53.538;8.584;2022-10-16T06:33:11;10.02;;;5.60;;
66521;SDS011;53349;53.538;8.584;2022-10-16T06:35:37;9.50;;;4.95;;
66521;SDS011;53349;53.538;8.584;2022-10-16T06:38:02;11.37;;;5.10;;
66521;SDS011;53349;53.538;8.584;2022-10-16T06:40:28;10.13;;;4.85;;
66521;SDS011;53349;53.538;8.584;2022-10-16T06:42:56;11.63;;;5.10;;
66521;SDS011;53349;53.538;8.584;2022-10-16T06:45:22;12.45;;;5.57;;
66521;SDS011;53349;53.538;8.584;2022-10-16T06:47:47;11.53;;;5.10;;
66521;SDS011;53349;53.538;8.584;2022-10-16T06:50:12;11.60;;;5.37;;
66521;SDS011;53349;53.538;8.584;2022-10-16T06:52:38;10.00;;;4.97;;
66521;SDS011;53349;53.538;8.584;2022-10-16T06:55:04;14.45;;;5.35;;
66521;SDS011;53349;53.538;8.584;2022-10-16T06:57:30;8.53;;;5.00;;
66521;SDS011;53349;53.538;8.584;2022-10-16T06:59:56;9.93;;;5.30;;
66521;SDS011;53349;53.538;8.584;2022-10-16T07:02:21;10.80;;;5.00;;
66521;SDS011;53349;53.538;8.584;2022-10-16T07:04:46;10.37;;;5.30;;
66521;SDS011;53349;53.538;8.584;2022-10-16T07:07:12;12.37;;;5.03;;
66521;SDS011;53349;53.538;8.584;2022-10-16T07:09:37;13.87;;;5.13;;
66521;SDS011;53349;53.538;8.584;2022-10-16T07:12:03;9.60;;;5.10;;
66521;SDS011;53349;53.538;8.584;2022-10-16T07:14:28;11.02;;;4.88;;
66521;SDS011;53349;53.538;8.584;2022-10-16T07:16:55;11.20;;;4.82;;
66521;SDS011;53349;53.538;8.584;2022-10-16T07:19:20;10.47;;;4.87;;
66521;SDS011;53349;53.538;8.584;2022-10-16T07:21:46;11.13;;;4.63;;
66521;SDS011;53349;53.538;8.584;2022-10-16T07:24:16;10.15;;;4.85;;
66521;SDS011;53349;53.538;8.584;2022-10-16T07:26:42;9.63;;;4.78;;
66521;SDS011;53349;53.538;8.584;2022-10-16T07:29:13;10.32;;;4.63;;
66521;SDS011;53349;53.538;8.584;2022-10-16T07:31:43;8.98;;;4.85;;
66521;SDS011;53349;53.538;8.584;2022-10-16T07:34:09;9.53;;;4.93;;
66521;SDS011;53349;53.538;8.584;2022-10-16T07:36:36;9.88;;;4.65;;
66521;SDS011;53349;53.538;8.584;2022-10-16T07:39:01;9.07;;;4.60;;
66521;SDS011;53349;53.538;8.584;2022-10-16T07:41:27;12.55;;;5.20;;
66521;SDS011;53349;53.538;8.584;2022-10-16T07:43:53;11.90;;;4.60;;
66521;SDS011;53349;53.538;8.584;2022-10-16T07:46:19;9.75;;;5.28;;
66521;SDS011;53349;53.538;8.584;2022-10-16T07:48:46;10.25;;;4.68;;
66521;SDS011;53349;53.538;8.584;2022-10-16T07:51:20;8.43;;;4.57;;
66521;SDS011;53349;53.538;8.584;2022-10-16T07:53:46;9.45;;;4.57;;
66521;SDS011;53349;53.538;8.584;2022-10-16T07:56:13;9.17;;;4.40;;
66521;SDS011;53349;53.538;8.584;2022-10-16T07:58:39;7.75;;;4.50;;
66521;SDS011;53349;53.538;8.584;2022-10-16T08:01:05;9.00;;;4.10;;
66521;SDS011;53349;53.538;8.584;2022-10-16T08:03:36;9.20;;;4.18;;
66521;SDS011;53349;53.538;8.584;2022-10-16T08:06:02;7.80;;;4.32;;
66521;SDS011;53349;53.538;8.584;2022-10-16T08:08:29;10.00;;;4.28;;
66521;SDS011;53349;53.538;8.584;2022-10-16T08:10:55;9.03;;;3.87;;
66521;SDS011;53349;53.538;8.584;2022-10-16T08:13:21;9.15;;;3.85;;
66521;SDS011;53349;53.538;8.584;2022-10-16T08:15:46;8.33;;;4.10;;
66521;SDS011;53349;53.538;8.584;2022-10-16T08:18:13;6.38;;;3.65;;
66521;SDS011;53349;53.538;8.584;2022-10-16T08:20:40;8.52;;;3.75;;
66521;SDS011;53349;53.538;8.584;2022-10-16T08:23:06;5.97;;;3.38;;
66521;SDS011;53349;53.538;8.584;2022-10-16T08:25:33;7.90;;;3.20;;
66521;SDS011;53349;53.538;8.584;2022-10-16T08:28:00;5.45;;;2.60;;
66521;SDS011;53349;53.538;8.584;2022-10-16T08:30:26;6.63;;;2.70;;
66521;SDS011;53349;53.538;8.584;2022-10-16T08:32:52;6.00;;;2.60;;
66521;SDS011;53349;53.538;8.584;2022-10-16T08:35:17;5.00;;;2.43;;
66521;SDS011;53349;53.538;8.584;2022-10-16T08:40:20;6.97;;;2.50;;
66521;SDS011;53349;53.538;8.584;2022-10-16T08:43:03;6.22;;;2.53;;
66521;SDS011;53349;53.538;8.584;2022-10-16T08:50:43;7.18;;;2.35;;
66521;SDS011;53349;53.538;8.584;2022-10-16T08:53:13;6.17;;;2.10;;
66521;SDS011;53349;53.538;8.584;2022-10-16T08:55:55;8.10;;;2.20;;
66521;SDS011;53349;53.538;8.584;2022-10-16T08:58:21;7.33;;;2.40;;
66521;SDS011;53349;53.538;8.584;2022-10-16T09:00:55;6.07;;;2.72;;
66521;SDS011;53349;53.538;8.584;2022-10-16T09:20:09;4.88;;;1.40;;
66521;SDS011;53349;53.538;8.584;2022-10-16T09:22:43;4.95;;;1.50;;
66521;SDS011;53349;53.538;8.584;2022-10-16T09:25:20;4.57;;;1.40;;
66521;SDS011;53349;53.538;8.584;2022-10-16T09:27:47;3.65;;;1.40;;
66521;SDS011;53349;53.538;8.584;2022-10-16T09:30:22;4.78;;;1.30;;
66521;SDS011;53349;53.538;8.584;2022-10-16T09:35:38;4.35;;;1.58;;
66521;SDS011;53349;53.538;8.584;2022-10-16T09:38:05;5.30;;;1.13;;
66521;SDS011;53349;53.538;8.584;2022-10-16T09:40:32;5.93;;;1.40;;
66521;SDS011;53349;53.538;8.584;2022-10-16T09:43:14;3.63;;;1.20;;
66521;SDS011;53349;53.538;8.584;2022-10-16T09:46:08;5.93;;;1.30;;
66521;SDS011;53349;53.538;8.584;2022-10-16T09:48:47;3.85;;;1.13;;
66521;SDS011;53349;53.538;8.584;2022-10-16T09:53:55;4.38;;;1.10;;
66521;SDS011;53349;53.538;8.584;2022-10-16T09:56:25;5.55;;;1.60;;
66521;SDS011;53349;53.538;8.584;2022-10-16T09:58:55;4.17;;;1.37;;
66521;SDS011;53349;53.538;8.584;2022-10-16T10:01:22;3.92;;;1.13;;
66521;SDS011;53349;53.538;8.584;2022-10-16T10:03:55;3.38;;;1.10;;
66521;SDS011;53349;53.538;8.584;2022-10-16T10:06:30;3.28;;;1.15;;
66521;SDS011;53349;53.538;8.584;2022-10-16T10:08:59;4.22;;;1.20;;
66521;SDS011;53349;53.538;8.584;2022-10-16T10:14:20;4.53;;;1.17;;
66521;SDS011;53349;53.538;8.584;2022-10-16T10:16:47;4.88;;;1.10;;
66521;SDS011;53349;53.538;8.584;2022-10-16T10:19:17;4.10;;;1.10;;
66521;SDS011;53349;53.538;8.584;2022-10-16T10:21:44;2.83;;;0.90;;
66521;SDS011;53349;53.538;8.584;2022-10-16T10:24:11;4.83;;;1.10;;
66521;SDS011;53349;53.538;8.584;2022-10-16T10:26:42;4.90;;;1.10;;
66521;SDS011;53349;53.538;8.584;2022-10-16T10:32:08;4.15;;;0.90;;
66521;SDS011;53349;53.538;8.584;2022-10-16T10:38:10;5.13;;;1.03;;
66521;SDS011;53349;53.538;8.584;2022-10-16T10:43:18;4.28;;;1.10;;
66521;SDS011;53349;53.538;8.584;2022-10-16T10:45:52;4.28;;;1.15;;
66521;SDS011;53349;53.538;8.584;2022-10-16T10:51:30;5.00;;;1.00;;
66521;SDS011;53349;53.538;8.584;2022-10-16T10:54:11;6.55;;;1.13;;
66521;SDS011;53349;53.538;8.584;2022-10-16T11:08:16;5.85;;;1.20;;
66521;SDS011;53349;53.538;8.584;2022-10-16T11:11:00;3.85;;;0.77;;
66521;SDS011;53349;53.538;8.584;2022-10-16T11:16:18;6.10;;;0.90;;
66521;SDS011;53349;53.538;8.584;2022-10-16T11:21:42;5.10;;;0.98;;
66521;SDS011;53349;53.538;8.584;2022-10-16T11:27:08;5.65;;;1.27;;
66521;SDS011;53349;53.538;8.584;2022-10-16T11:29:46;5.50;;;1.00;;
66521;SDS011;53349;53.538;8.584;2022-10-16T11:32:23;5.77;;;0.90;;
66521;SDS011;53349;53.538;8.584;2022-10-16T11:34:56;4.70;;;1.00;;
66521;SDS011;53349;53.538;8.584;2022-10-16T11:37:32;5.40;;;0.93;;
66521;SDS011;53349;53.538;8.584;2022-10-16T11:40:14;6.38;;;1.00;;
66521;SDS011;53349;53.538;8.584;2022-10-16T11:43:52;4.65;;;0.90;;
66521;SDS011;53349;53.538;8.584;2022-10-16T11:46:02;4.63;;;0.80;;
66521;SDS011;53349;53.538;8.584;2022-10-16T11:48:36;6.90;;;1.20;;
66521;SDS011;53349;53.538;8.584;2022-10-16T11:56:43;6.00;;;1.05;;
66521;SDS011;53349;53.538;8.584;2022-10-16T11:59:16;6.77;;;1.17;;
66521;SDS011;53349;53.538;8.584;2022-10-16T12:04:31;5.40;;;1.08;;
66521;SDS011;53349;53.538;8.584;2022-10-16T12:07:11;8.38;;;1.33;;
66521;SDS011;53349;53.538;8.584;2022-10-16T12:09:46;6.90;;;0.95;;
66521;SDS011;53349;53.538;8.584;2022-10-16T12:12:57;10.37;;;1.30;;
66521;SDS011;53349;53.538;8.584;2022-10-16T12:15:01;7.50;;;1.00;;
66521;SDS011;53349;53.538;8.584;2022-10-16T12:17:42;6.80;;;1.03;;
66521;SDS011;53349;53.538;8.584;2022-10-16T12:22:36;4.18;;;1.10;;
66521;SDS011;53349;53.538;8.584;2022-10-16T12:25:02;6.10;;;1.13;;
66521;SDS011;53349;53.538;8.584;2022-10-16T12:27:28;7.60;;;0.90;;
66521;SDS011;53349;53.538;8.584;2022-10-16T12:29:57;7.97;;;1.20;;
66521;SDS011;53349;53.538;8.584;2022-10-16T12:32:38;5.20;;;1.38;;
66521;SDS011;53349;53.538;8.584;2022-10-16T12:35:05;8.43;;;1.60;;
66521;SDS011;53349;53.538;8.584;2022-10-16T12:37:42;6.20;;;1.20;;
66521;SDS011;53349;53.538;8.584;2022-10-16T12:42:47;4.13;;;0.90;;
66521;SDS011;53349;53.538;8.584;2022-10-16T12:45:32;7.53;;;1.17;;
66521;SDS011;53349;53.538;8.584;2022-10-16T12:47:59;6.13;;;1.00;;
66521;SDS011;53349;53.538;8.584;2022-10-16T12:50:36;5.20;;;1.10;;
66521;SDS011;53349;53.538;8.584;2022-10-16T12:53:04;5.57;;;1.05;;
66521;SDS011;53349;53.538;8.584;2022-10-16T12:56:04;4.17;;;0.90;;
66521;SDS011;53349;53.538;8.584;2022-10-16T13:15:18;6.25;;;1.15;;
66521;SDS011;53349;53.538;8.584;2022-10-16T13:20:33;5.43;;;0.98;;
66521;SDS011;53349;53.538;8.584;2022-10-16T13:23:16;5.10;;;1.10;;
66521;SDS011;53349;53.538;8.584;2022-10-16T13:26:22;4.90;;;1.00;;
66521;SDS011;53349;53.538;8.584;2022-10-16T13:29:08;5.65;;;1.20;;
66521;SDS011;53349;53.538;8.584;2022-10-16T13:31:36;4.60;;;0.90;;
66521;SDS011;53349;53.538;8.584;2022-10-16T13:34:04;9.32;;;1.40;;
66521;SDS011;53349;53.538;8.584;2022-10-16T13:36:34;5.97;;;1.15;;
66521;SDS011;53349;53.538;8.584;2022-10-16T13:39:12;8.55;;;1.13;;
66521;SDS011;53349;53.538;8.584;2022-10-16T13:41:40;6.75;;;0.80;;
66521;SDS011;53349;53.538;8.584;2022-10-16T13:44:19;7.38;;;0.93;;
66521;SDS011;53349;53.538;8.584;2022-10-16T13:46:57;5.68;;;0.80;;
66521;SDS011;53349;53.538;8.584;2022-10-16T13:49:26;7.30;;;0.93;;
66521;SDS011;53349;53.538;8.584;2022-10-16T13:51:58;4.90;;;0.80;;
66521;SDS011;53349;53.538;8.584;2022-10-16T13:54:25;5.78;;;0.98;;
66521;SDS011;53349;53.538;8.584;2022-10-16T13:56:52;7.60;;;1.08;;
66521;SDS011;53349;53.538;8.584;2022-10-16T13:59:36;5.07;;;0.87;;
66521;SDS011;53349;53.538;8.584;2022-10-16T14:02:08;6.15;;;1.08;;
66521;SDS011;53349;53.538;8.584;2022-10-16T14:04:50;7.18;;;1.25;;
66521;SDS011;53349;53.538;8.584;2022-10-16T14:07:21;5.47;;;1.00;;
66521;SDS011;53349;53.538;8.584;2022-10-16T14:09:50;5.38;;;0.98;;
66521;SDS011;53349;53.538;8.584;2022-10-16T14:12:17;4.77;;;1.33;;
66521;SDS011;53349;53.538;8.584;2022-10-16T14:14:44;5.50;;;1.42;;
66521;SDS011;53349;53.538;8.584;2022-10-16T14:17:16;5.47;;;1.00;;
66521;SDS011;53349;53.538;8.584;2022-10-16T14:19:45;5.82;;;1.05;;
66521;SDS011;53349;53.538;8.584;2022-10-16T14:22:57;6.00;;;1.08;;
66521;SDS011;53349;53.538;8.584;2022-10-16T14:28:13;5.90;;;1.17;;
66521;SDS011;53349;53.538;8.584;2022-10-16T14:30:57;4.88;;;1.10;;
66521;SDS011;53349;53.538;8.584;2022-10-16T14:33:30;5.40;;;1.10;;
66521;SDS011;53349;53.538;8.584;2022-10-16T14:38:33;5.90;;;1.10;;
66521;SDS011;53349;53.538;8.584;2022-10-16T14:40:59;7.10;;;1.30;;
66521;SDS011;53349;53.538;8.584;2022-10-16T14:43:32;5.93;;;1.30;;
66521;SDS011;53349;53.538;8.584;2022-10-16T14:45:59;7.93;;;1.35;;
66521;SDS011;53349;53.538;8.584;2022-10-16T14:48:26;5.60;;;1.02;;
66521;SDS011;53349;53.538;8.584;2022-10-16T14:50:51;5.82;;;1.27;;
66521;SDS011;53349;53.538;8.584;2022-10-16T14:53:17;4.33;;;1.00;;
66521;SDS011;53349;53.538;8.584;2022-10-16T14:55:42;6.20;;;1.57;;
66521;SDS011;53349;53.538;8.584;2022-10-16T14:58:18;7.20;;;1.40;;
66521;SDS011;53349;53.538;8.584;2022-10-16T15:00:46;7.67;;;1.43;;
66521;SDS011;53349;53.538;8.584;2022-10-16T15:03:12;6.45;;;1.50;;
66521;SDS011;53349;53.538;8.584;2022-10-16T15:05:37;8.70;;;1.50;;
66521;SDS011;53349;53.538;8.584;2022-10-16T15:08:03;8.05;;;1.30;;
66521;SDS011;53349;53.538;8.584;2022-10-16T15:10:29;5.07;;;1.35;;
66521;SDS011;53349;53.538;8.584;2022-10-16T15:12:57;5.47;;;1.08;;
66521;SDS011;53349;53.538;8.584;2022-10-16T15:17:55;8.68;;;1.40;;
66521;SDS011;53349;53.538;8.584;2022-10-16T15:20:22;7.07;;;1.27;;
66521;SDS011;53349;53.538;8.584;2022-10-16T15:22:48;7.57;;;1.20;;
66521;SDS011;53349;53.538;8.584;2022-10-16T15:25:22;6.57;;;1.27;;
66521;SDS011;53349;53.538;8.584;2022-10-16T15:27:54;7.30;;;1.20;;
66521;SDS011;53349;53.538;8.584;2022-10-16T15:30:19;5.70;;;1.38;;
66521;SDS011;53349;53.538;8.584;2022-10-16T15:32:45;7.93;;;1.10;;
66521;SDS011;53349;53.538;8.584;2022-10-16T15:35:10;6.57;;;1.60;;
66521;SDS011;53349;53.538;8.584;2022-10-16T15:37:35;7.03;;;1.50;;
66521;SDS011;53349;53.538;8.584;2022-10-16T15:40:01;7.45;;;1.52;;
66521;SDS011;53349;53.538;8.584;2022-10-16T15:42:27;7.30;;;1.67;;
66521;SDS011;53349;53.538;8.584;2022-10-16T15:44:53;9.77;;;1.80;;
66521;SDS011;53349;53.538;8.584;2022-10-16T15:47:18;6.83;;;1.77;;
66521;SDS011;53349;53.538;8.584;2022-10-16T15:49:43;7.00;;;1.67;;
66521;SDS011;53349;53.538;8.584;2022-10-16T15:52:09;8.93;;;2.00;;
66521;SDS011;53349;53.538;8.584;2022-10-16T15:54:34;9.10;;;1.87;;
66521;SDS011;53349;53.538;8.584;2022-10-16T15:57:00;6.47;;;1.40;;
66521;SDS011;53349;53.538;8.584;2022-10-16T15:59:27;8.43;;;1.25;;
66521;SDS011;53349;53.538;8.584;2022-10-16T16:01:52;6.97;;;1.30;;
66521;SDS011;53349;53.538;8.584;2022-10-16T16:04:18;8.37;;;1.90;;
66521;SDS011;53349;53.538;8.584;2022-10-16T16:06:43;6.97;;;1.30;;
66521;SDS011;53349;53.538;8.584;2022-10-16T16:09:12;5.97;;;1.15;;
66521;SDS011;53349;53.538;8.584;2022-10-16T16:11:38;6.15;;;1.50;;
66521;SDS011;53349;53.538;8.584;2022-10-16T16:14:05;8.32;;;1.38;;
66521;SDS011;53349;53.538;8.584;2022-10-16T16:16:31;6.43;;;1.03;;
66521;SDS011;53349;53.538;8.584;2022-10-16T16:19:02;8.25;;;1.35;;
66521;SDS011;53349;53.538;8.584;2022-10-16T16:21:28;8.02;;;1.83;;
66521;SDS011;53349;53.538;8.584;2022-10-16T16:23:53;5.63;;;1.47;;
66521;SDS011;53349;53.538;8.584;2022-10-16T16:26:23;7.47;;;1.65;;
66521;SDS011;53349;53.538;8.584;2022-10-16T16:28:57;5.65;;;1.38;;
66521;SDS011;53349;53.538;8.584;2022-10-16T16:31:26;6.37;;;1.63;;
66521;SDS011;53349;53.538;8.584;2022-10-16T16:33:53;6.57;;;1.30;;
66521;SDS011;53349;53.538;8.584;2022-10-16T16:36:18;7.33;;;1.60;;
66521;SDS011;53349;53.538;8.584;2022-10-16T16:38:44;6.50;;;1.50;;
66521;SDS011;53349;53.538;8.584;2022-10-16T16:41:11;5.68;;;1.30;;
66521;SDS011;53349;53.538;8.584;2022-10-16T16:43:38;7.25;;;1.58;;
66521;SDS011;53349;53.538;8.584;2022-10-16T16:46:03;5.97;;;1.60;;
66521;SDS011;53349;53.538;8.584;2022-10-16T16:48:29;10.67;;;1.50;;
66521;SDS011;53349;53.538;8.584;2022-10-16T16:50:54;6.88;;;1.63;;
66521;SDS011;53349;53.538;8.584;2022-10-16T16:53:21;6.53;;;1.30;;
66521;SDS011;53349;53.538;8.584;2022-10-16T16:55:47;5.32;;;1.40;;